EDT,Max TemperatureF,Mean TemperatureF,Min TemperatureF,Max Dew PointF,MeanDew PointF,Min DewpointF,Max Humidity, Mean Humidity, Min Humidity, Max Sea Level PressureIn, Mean Sea Level PressureIn, Min Sea Level PressureIn, Max VisibilityMiles, Mean VisibilityMiles, Min VisibilityMiles, Max Wind SpeedMPH, Mean Wind SpeedMPH, Max Gust SpeedMPH,PrecipitationIn, CloudCover, Events, WindDirDegrees
2012-8-1,84,72,59,72,64,57,100,83,51,30.03,29.98,29.91,10,10,6,7,1,,0.00,0,,333
2012-8-2,87,74,62,72,65,63,100,74,46,30.00,29.97,29.92,10,8,4,8,2,,0.00,1,,352
2012-8-3,89,76,64,72,65,63,100,85,52,30.11,30.04,29.96,10,7,0,13,3,,0.00,1,Fog-Rain,70
2012-8-4,86,76,66,70,67,64,100,81,51,30.21,30.15,30.08,10,10,10,9,3,,0.00,3,,72
2012-8-5,89,76,64,70,66,64,100,83,46,30.25,30.21,30.13,10,9,1,9,3,,0.00,2,Rain,66
2012-8-6,78,71,64,70,67,64,100,92,69,30.21,30.16,30.09,10,10,3,7,1,,0.00,2,Rain,236
2012-8-7,82,73,64,73,68,64,100,86,65,30.10,30.06,30.00,10,10,7,8,1,,0.00,1,Rain,267
2012-8-8,86,76,66,72,67,63,100,78,45,30.09,30.05,30.01,10,10,8,9,2,,0.00,2,,308
2012-8-9,87,76,64,72,65,63,94,82,43,30.06,29.99,29.89,10,9,3,9,3,,0.00,1,Rain,52
2012-8-10,78,71,64,68,65,63,100,80,61,29.91,29.88,29.85,10,10,7,14,2,,0.00,5,Rain,278
2012-8-11,77,67,57,64,60,55,100,77,47,30.06,29.97,29.91,10,7,1,7,2,,0.00,5,Rain,277
2012-8-12,78,66,53,64,57,54,100,77,42,30.11,30.07,30.04,10,10,4,9,1,,0.00,0,,274
2012-8-13,82,68,55,64,60,54,100,77,48,30.10,30.06,30.00,10,10,10,7,2,,0.00,1,,14
2012-8-14,80,70,60,66,63,59,100,82,58,30.03,29.99,29.94,10,10,7,9,2,,0.00,4,Rain,281
2012-8-15,75,67,59,66,63,57,100,89,53,30.09,30.02,29.97,10,8,2,10,2,,0.00,3,Rain,264
2012-8-16,82,68,55,64,59,55,100,77,42,30.14,30.08,29.99,10,10,4,10,2,,0.00,0,,25
2012-8-17,75,67,59,66,61,57,100,84,65,30.06,30.00,29.95,10,10,4,7,2,,0.00,3,Rain,355
2012-8-18,80,70,60,66,62,57,100,79,45,30.00,29.96,29.90,10,9,4,6,1,,0.00,4,,272
2012-8-19,77,68,60,64,61,55,100,81,47,29.96,29.92,29.88,10,9,3,8,1,,0.00,3,Rain,266
2012-8-20,78,68,57,63,59,54,100,76,44,30.06,29.97,29.92,10,10,9,9,2,,0.00,3,,269
2012-8-21,80,66,51,63,53,45,100,70,28,30.14,30.09,30.06,10,10,9,8,2,,0.00,0,,4
2012-8-22,82,66,51,64,55,52,100,71,35,30.19,30.15,30.11,10,10,9,9,1,,0.00,0,,316
2012-8-23,84,70,57,64,59,54,100,73,39,30.21,30.17,30.13,10,10,8,6,2,,0.00,2,Rain,58
2012-8-24,82,70,57,64,60,55,100,78,39,30.22,30.18,30.13,10,10,7,14,2,,0.00,0,Rain,64
2012-8-25,84,72,59,64,59,55,94,71,37,30.22,30.18,30.12,10,10,10,8,3,,0.00,2,,56
2012-8-26,84,72,59,68,60,55,94,74,39,30.24,30.19,30.13,10,10,6,8,2,,0.00,1,,49
2012-8-27,87,74,60,68,61,57,100,73,38,30.22,30.14,30.05,10,9,2,8,2,,0.00,0,,71
2012-8-28,89,74,60,66,61,55,94,69,33,30.11,30.05,29.97,10,10,10,10,3,,0.00,1,,41
2012-8-29,87,74,62,66,63,57,100,71,35,30.07,30.03,30.00,10,10,6,9,1,,0.00,2,,338
2012-8-30,89,76,62,70,65,59,100,77,46,30.22,30.12,30.05,10,10,3,8,2,,0.00,1,,27
2012-8-31,89,76,64,72,67,64,100,78,46,30.30,30.23,30.17,10,10,8,9,2,,0.00,1,,276